GB-0263 weather

Peplow Airstrip
Child's Ercall, England, United Kingdom

Public forecast

Using degrees Celsius for public forecast. Weather courtesy of forecast.io.

Closest aviation weather report (METAR) to Peplow Airstrip

Closest report is RAF Shawbury, 6.0 nm (11.2 km) W. Retrieved 2019/11/14 15:20 UTC (0 seconds ago):

EGOS 141520Z 02018KT 9999 FEW030 SCT040 BKN060 06/01 Q1001 TEMPO 6000 RA RMK BLU TEMPO WHT

Closest aviation forecast (TAF) to Peplow Airstrip

Forecast is more than 12 hours old.

Closest forecast is RAF Shawbury, 6.0 nm (11.2 km) W. Retrieved 2010/10/20 21:33 UTC (9 years ago):

TAF TAF EGOS 201947Z 2021/2124 CNL